createdAt,value
2023-05-10T00:02:00.306Z,52.28
2023-05-10T00:04:28.675Z,49.15
2023-05-10T00:06:56.477Z,48.20
2023-05-10T00:09:23.524Z,40.83
2023-05-10T00:11:50.698Z,51.47
2023-05-10T00:14:18.195Z,51.92
2023-05-10T00:16:45.355Z,44.63
2023-05-10T00:19:12.557Z,45.90
2023-05-10T00:21:39.693Z,44.25
2023-05-10T00:24:06.987Z,64.05
2023-05-10T00:26:34.049Z,50.53
2023-05-10T00:29:01.215Z,50.30
2023-05-10T00:31:28.246Z,48.67
2023-05-10T00:33:55.783Z,46.15
2023-05-10T00:36:22.945Z,46.75
2023-05-10T00:38:50.252Z,45.88
2023-05-10T00:41:17.290Z,51.47
2023-05-10T00:43:44.496Z,50.08
2023-05-10T00:46:12.237Z,42.13
2023-05-10T00:48:39.706Z,49.28
2023-05-10T00:51:07.624Z,46.92
2023-05-10T00:53:36.051Z,46.30
2023-05-10T00:56:04.503Z,46.17
2023-05-10T00:58:32.313Z,51.53
2023-05-10T01:01:00.755Z,55.75
2023-05-10T01:03:27.950Z,44.53
2023-05-10T01:05:55.336Z,42.22
2023-05-10T01:08:23.042Z,53.55
2023-05-10T01:10:53.837Z,51.78
2023-05-10T01:13:40.751Z,53.17
2023-05-10T01:16:08.547Z,51.72
2023-05-10T01:18:39.939Z,42.60
2023-05-10T01:21:18.928Z,48.63
2023-05-10T01:23:48.762Z,51.85
2023-05-10T01:26:36.641Z,51.40
2023-05-10T01:30:13.605Z,54.20
2023-05-10T01:32:42.378Z,49.58
2023-05-10T01:35:20.272Z,53.72
2023-05-10T01:37:58.502Z,50.40
2023-05-10T01:40:37.846Z,45.53
2023-05-10T01:43:12.330Z,45.58
2023-05-10T01:45:49.031Z,45.47
2023-05-10T01:48:17.538Z,41.67
2023-05-10T01:50:46.837Z,54.00
2023-05-10T01:53:19.259Z,46.38
2023-05-10T01:55:49.088Z,42.33
2023-05-10T01:58:21.562Z,50.67
2023-05-10T02:00:50.989Z,42.75
2023-05-10T02:03:21.887Z,42.08
2023-05-10T02:05:50.984Z,53.85
2023-05-10T02:08:19.435Z,49.53
2023-05-10T02:10:47.070Z,48.63
2023-05-10T02:13:15.360Z,42.17
2023-05-10T02:15:44.256Z,41.83
2023-05-10T02:18:13.090Z,44.28
2023-05-10T02:20:40.911Z,45.65
2023-05-10T02:23:10.132Z,42.58
2023-05-10T02:25:40.019Z,43.25
2023-05-10T02:28:08.617Z,55.22
2023-05-10T02:30:36.602Z,53.58
2023-05-10T02:33:05.939Z,52.70
2023-05-10T02:35:34.841Z,57.28
2023-05-10T02:38:02.720Z,47.33
2023-05-10T02:40:31.108Z,43.60
2023-05-10T02:43:00.571Z,50.55
2023-05-10T02:45:30.723Z,48.22
2023-05-10T02:47:58.605Z,60.95
2023-05-10T02:50:29.285Z,47.47
2023-05-10T02:53:04.934Z,57.35
2023-05-10T02:55:39.321Z,51.75
2023-05-10T02:58:06.768Z,54.33
2023-05-10T03:00:34.035Z,46.70
2023-05-10T03:03:01.720Z,53.17
2023-05-10T03:05:28.832Z,46.97
2023-05-10T03:07:57.272Z,44.95
2023-05-10T03:10:30.792Z,38.03
2023-05-10T03:13:09.117Z,28.17
2023-05-10T03:15:47.065Z,32.92
2023-05-10T03:18:28.905Z,34.33
2023-05-10T03:21:08.040Z,40.55
2023-05-10T03:23:44.547Z,38.55
2023-05-10T03:26:17.644Z,39.95
2023-05-10T03:28:45.260Z,32.08
2023-05-10T03:31:13.789Z,36.95
2023-05-10T03:33:51.348Z,38.03
2023-05-10T03:36:19.077Z,34.30
2023-05-10T03:38:47.067Z,34.38
2023-05-10T03:41:14.185Z,28.65
2023-05-10T03:43:42.421Z,32.88
2023-05-10T03:46:09.639Z,35.53
2023-05-10T03:48:36.704Z,32.55
2023-05-10T03:51:03.843Z,32.15
2023-05-10T03:53:30.906Z,40.60
2023-05-10T03:55:57.934Z,40.33
2023-05-10T03:58:24.991Z,31.67
2023-05-10T04:00:52.964Z,46.72
2023-05-10T04:03:20.187Z,46.03
2023-05-10T04:05:47.295Z,34.40
2023-05-10T04:08:14.473Z,43.10
2023-05-10T04:10:41.640Z,37.50
2023-05-10T04:13:08.717Z,26.08
2023-05-10T04:15:36.890Z,34.88
2023-05-10T04:18:04.752Z,28.73
2023-05-10T04:20:34.514Z,29.13
2023-05-10T04:23:01.571Z,29.30
2023-05-10T04:25:28.686Z,24.77
2023-05-10T04:27:55.749Z,37.47
2023-05-10T04:30:23.002Z,39.08
2023-05-10T04:32:50.761Z,23.50
2023-05-10T04:35:17.895Z,27.40
2023-05-10T04:37:45.010Z,35.97
2023-05-10T04:40:12.601Z,26.70
2023-05-10T04:42:42.511Z,25.73
2023-05-10T04:45:10.947Z,24.15
2023-05-10T04:47:38.376Z,26.15
2023-05-10T04:50:06.597Z,31.38
2023-05-10T04:52:33.687Z,27.55
2023-05-10T04:55:00.799Z,27.70
2023-05-10T04:57:27.944Z,32.30
2023-05-10T04:59:55.100Z,27.85
2023-05-10T05:02:22.225Z,23.73
2023-05-10T05:04:49.297Z,26.42
2023-05-10T05:07:16.367Z,30.23
2023-05-10T05:09:43.526Z,28.25
2023-05-10T05:12:15.369Z,27.50
2023-05-10T05:14:42.724Z,26.08
2023-05-10T05:17:09.865Z,30.63
2023-05-10T05:19:37.077Z,24.92
2023-05-10T05:22:04.231Z,25.63
2023-05-10T05:24:37.095Z,31.00
2023-05-10T05:27:04.235Z,28.00
2023-05-10T05:29:31.469Z,32.97
2023-05-10T05:31:58.846Z,30.70
2023-05-10T05:34:26.453Z,31.00
2023-05-10T05:36:53.538Z,29.02
2023-05-10T05:39:20.630Z,27.95
2023-05-10T05:41:47.855Z,31.17
2023-05-10T05:44:15.005Z,29.30
2023-05-10T05:46:42.071Z,24.42
2023-05-10T05:49:09.103Z,31.48
2023-05-10T05:51:37.076Z,32.33
2023-05-10T05:54:05.600Z,27.67
2023-05-10T05:56:32.745Z,31.55
2023-05-10T05:59:01.709Z,28.20
2023-05-10T06:01:28.785Z,29.10
2023-05-10T06:03:55.935Z,30.90
2023-05-10T06:06:23.189Z,31.48
2023-05-10T06:08:50.236Z,27.60
2023-05-10T06:11:17.301Z,34.53
2023-05-10T06:13:44.418Z,35.15
2023-05-10T06:16:11.833Z,32.78
2023-05-10T06:18:38.969Z,34.50
2023-05-10T06:21:06.181Z,34.65
2023-05-10T06:23:33.410Z,25.60
2023-05-10T06:26:00.408Z,33.22
2023-05-10T06:28:27.439Z,30.35
2023-05-10T06:30:54.568Z,30.00
2023-05-10T06:33:21.580Z,35.78
2023-05-10T06:35:48.633Z,30.77
2023-05-10T06:38:16.484Z,39.08
2023-05-10T06:40:44.063Z,35.92
2023-05-10T06:43:11.309Z,35.47
2023-05-10T06:45:38.546Z,31.70
2023-05-10T06:48:05.952Z,32.35
2023-05-10T06:50:33.502Z,35.33
2023-05-10T06:53:01.247Z,35.92
2023-05-10T06:55:28.388Z,41.58
2023-05-10T06:57:58.501Z,45.45
2023-05-10T07:00:25.908Z,31.25
2023-05-10T07:02:53.353Z,51.42
2023-05-10T07:05:21.508Z,94.22
2023-05-10T07:07:48.778Z,86.03
2023-05-10T07:10:15.971Z,63.72
2023-05-10T07:12:43.787Z,63.05
2023-05-10T07:15:11.053Z,51.00
2023-05-10T07:17:38.163Z,66.97
2023-05-10T07:20:06.506Z,93.88
2023-05-10T07:22:33.678Z,69.70
2023-05-10T07:25:00.678Z,47.10
2023-05-10T07:27:27.836Z,41.50
2023-05-10T07:29:55.865Z,60.08
2023-05-10T07:32:23.111Z,77.90
2023-05-10T07:34:50.322Z,68.15
2023-05-10T07:37:17.445Z,37.78
2023-05-10T07:39:44.533Z,54.95
2023-05-10T07:42:11.616Z,60.08
2023-05-10T07:44:38.660Z,69.53
2023-05-10T07:47:05.938Z,70.78
2023-05-10T07:49:32.983Z,49.30
2023-05-10T07:52:00.175Z,62.78
2023-05-10T07:54:27.334Z,65.90
2023-05-10T07:56:54.379Z,57.72
2023-05-10T07:59:21.445Z,67.90
2023-05-10T08:01:48.833Z,63.22
2023-05-10T08:04:15.957Z,63.83
2023-05-10T08:06:43.143Z,49.25
2023-05-10T08:09:10.697Z,39.83
2023-05-10T08:11:37.908Z,33.55
2023-05-10T08:14:05.081Z,51.03
2023-05-10T08:16:33.848Z,46.92
2023-05-10T08:19:01.121Z,42.08
2023-05-10T08:21:28.298Z,39.97
2023-05-10T08:23:55.531Z,40.65
2023-05-10T08:26:22.901Z,43.45
2023-05-10T08:28:50.085Z,31.95
2023-05-10T08:31:17.779Z,39.03
2023-05-10T08:33:44.964Z,37.53
2023-05-10T08:36:12.465Z,36.13
2023-05-10T08:38:39.735Z,37.63
2023-05-10T08:41:07.338Z,41.90
2023-05-10T08:43:37.232Z,46.53
2023-05-10T08:46:07.108Z,41.33
2023-05-10T08:48:36.815Z,42.00
2023-05-10T08:51:05.153Z,36.00
2023-05-10T08:53:36.733Z,43.75
2023-05-10T08:56:04.899Z,41.28
2023-05-10T08:58:32.424Z,33.92
2023-05-10T09:01:00.772Z,49.10
2023-05-10T09:03:28.006Z,35.03
2023-05-10T09:05:57.080Z,36.55
2023-05-10T09:08:27.984Z,37.88
2023-05-10T09:10:58.642Z,33.90
2023-05-10T09:13:27.282Z,39.70
2023-05-10T09:15:55.205Z,38.75
2023-05-10T09:18:22.260Z,43.75
2023-05-10T09:20:50.350Z,36.63
2023-05-10T09:23:17.388Z,35.30
2023-05-10T09:25:44.482Z,38.72
2023-05-10T09:28:12.509Z,38.42
2023-05-10T09:30:40.533Z,36.90
2023-05-10T09:33:07.751Z,40.65
2023-05-10T09:35:35.344Z,37.65
2023-05-10T09:38:04.744Z,36.47
2023-05-10T09:40:32.453Z,41.83
2023-05-10T09:43:04.573Z,32.55
2023-05-10T09:45:35.068Z,31.70
2023-05-10T09:48:05.200Z,43.80
2023-05-10T09:50:32.279Z,36.65
2023-05-10T09:53:04.947Z,33.30
2023-05-10T09:55:41.446Z,40.83
2023-05-10T09:58:12.112Z,35.58
2023-05-10T10:00:41.574Z,44.47
2023-05-10T10:03:18.214Z,30.42
2023-05-10T10:05:46.333Z,34.03
2023-05-10T10:08:14.296Z,36.65
2023-05-10T10:10:41.837Z,32.20
2023-05-10T10:13:09.679Z,40.42
2023-05-10T10:15:37.001Z,40.65
2023-05-10T10:18:06.484Z,35.08
2023-05-10T10:20:33.731Z,39.83
2023-05-10T10:23:00.831Z,38.88
2023-05-10T10:25:28.070Z,34.50
2023-05-10T10:27:55.319Z,38.35
2023-05-10T10:30:31.226Z,34.25
2023-05-10T10:33:31.876Z,36.92
2023-05-10T10:36:04.494Z,40.08
2023-05-10T10:38:49.926Z,33.05
2023-05-10T10:41:30.389Z,37.78
2023-05-10T10:44:38.119Z,43.95
2023-05-10T10:47:07.149Z,35.42
2023-05-10T10:49:39.651Z,40.00
2023-05-10T10:52:22.195Z,37.67
2023-05-10T10:55:12.357Z,34.83
2023-05-10T10:57:45.374Z,32.25
2023-05-10T11:00:39.115Z,34.90
2023-05-10T11:03:20.141Z,37.20
2023-05-10T11:05:48.056Z,33.63
2023-05-10T11:08:18.158Z,36.88
2023-05-10T11:10:53.396Z,38.40
2023-05-10T11:13:51.538Z,35.60
2023-05-10T11:16:19.282Z,38.95
2023-05-10T11:19:24.232Z,37.88
2023-05-10T11:21:55.384Z,31.92
2023-05-10T11:24:24.464Z,44.58
2023-05-10T11:26:55.060Z,37.10
2023-05-10T11:29:22.298Z,40.63
2023-05-10T11:31:51.221Z,45.03
2023-05-10T11:34:34.870Z,32.13
2023-05-10T11:37:02.542Z,50.13
2023-05-10T11:39:31.553Z,33.55
2023-05-10T11:41:59.742Z,32.90
2023-05-10T11:44:35.709Z,31.95
2023-05-10T11:47:03.477Z,45.30
2023-05-10T11:49:30.732Z,33.53
2023-05-10T11:52:08.644Z,37.15
2023-05-10T11:54:38.677Z,33.65
2023-05-10T11:57:06.151Z,39.05
2023-05-10T11:59:33.215Z,37.95
2023-05-10T12:02:00.700Z,30.05
2023-05-10T12:04:30.802Z,42.45
2023-05-10T12:06:58.090Z,44.00
2023-05-10T12:09:39.416Z,40.38
2023-05-10T12:12:10.188Z,33.85
2023-05-10T12:14:37.258Z,30.42
2023-05-10T12:17:04.255Z,35.72
2023-05-10T12:19:39.862Z,36.42
2023-05-10T12:22:07.512Z,42.95
2023-05-10T12:24:39.467Z,42.90
2023-05-10T12:29:53.745Z,39.67
2023-05-10T12:32:20.992Z,38.85
2023-05-10T12:34:48.835Z,40.65
2023-05-10T12:37:15.860Z,41.00
2023-05-10T12:39:45.080Z,35.65
2023-05-10T12:42:12.430Z,37.90
2023-05-10T12:44:40.132Z,37.45
2023-05-10T12:47:07.581Z,44.25
2023-05-10T12:49:35.262Z,38.35
2023-05-10T12:52:02.483Z,41.78
2023-05-10T12:54:29.558Z,37.67
2023-05-10T12:56:56.627Z,39.38
2023-05-10T12:59:24.035Z,44.88
2023-05-10T13:01:51.216Z,32.85
2023-05-10T13:04:18.248Z,41.47
2023-05-10T13:06:45.417Z,43.92
2023-05-10T13:09:12.499Z,39.33
2023-05-10T13:11:39.625Z,34.05
2023-05-10T13:14:06.781Z,35.60
2023-05-10T13:16:34.069Z,33.30
2023-05-10T13:19:01.243Z,40.88
2023-05-10T13:21:28.525Z,32.45
2023-05-10T13:23:55.671Z,40.35
2023-05-10T13:26:22.695Z,35.40
2023-05-10T13:28:50.807Z,36.00
2023-05-10T13:31:18.167Z,41.13
2023-05-10T13:33:45.142Z,46.35
2023-05-10T13:36:12.133Z,39.80
2023-05-10T13:38:39.164Z,42.15
2023-05-10T13:41:06.202Z,42.58
2023-05-10T13:43:33.275Z,38.22
2023-05-10T13:46:00.382Z,43.25
2023-05-10T13:48:28.145Z,37.92
2023-05-10T13:50:55.184Z,37.70
2023-05-10T13:53:22.366Z,39.63
2023-05-10T13:55:49.430Z,43.58
2023-05-10T13:58:16.511Z,38.70
2023-05-10T14:00:43.637Z,46.60
2023-05-10T14:03:12.659Z,45.05
2023-05-10T14:05:39.809Z,42.75
2023-05-10T14:08:06.996Z,35.80
2023-05-10T14:10:33.910Z,35.90
2023-05-10T14:13:00.923Z,41.03
2023-05-10T14:15:28.072Z,39.83
2023-05-10T14:17:56.646Z,45.35
2023-05-10T14:20:23.689Z,39.42
2023-05-10T14:22:50.836Z,41.40
2023-05-10T14:25:18.057Z,38.72
2023-05-10T14:27:45.306Z,37.72
2023-05-10T14:30:12.848Z,46.15
2023-05-10T14:32:39.851Z,38.95
2023-05-10T14:35:07.588Z,45.88
2023-05-10T14:37:34.996Z,39.83
2023-05-10T14:40:02.052Z,42.03
2023-05-10T14:42:29.636Z,34.35
2023-05-10T14:44:56.873Z,38.58
2023-05-10T14:47:23.880Z,42.25
2023-05-10T14:49:50.821Z,44.08
2023-05-10T14:52:18.520Z,44.20
2023-05-10T14:54:45.573Z,52.25
2023-05-10T14:57:12.505Z,36.33
2023-05-10T14:59:39.715Z,44.80
2023-05-10T15:02:09.405Z,46.08
2023-05-10T15:04:36.763Z,34.92
2023-05-10T15:07:04.495Z,42.90
2023-05-10T15:09:31.632Z,36.88
2023-05-10T15:11:58.578Z,44.25
2023-05-10T15:14:26.123Z,40.60
2023-05-10T15:16:53.158Z,39.78
2023-05-10T15:19:21.602Z,43.65
2023-05-10T15:21:48.699Z,43.25
2023-05-10T15:24:15.743Z,42.33
2023-05-10T15:26:42.776Z,48.67
2023-05-10T15:29:10.062Z,44.80
2023-05-10T15:31:37.400Z,48.17
2023-05-10T15:34:04.487Z,36.78
2023-05-10T15:36:33.676Z,47.83
2023-05-10T15:39:00.682Z,46.45
2023-05-10T15:41:27.983Z,51.88
2023-05-10T15:43:55.913Z,47.40
2023-05-10T15:46:23.041Z,41.10
2023-05-10T15:48:50.087Z,49.95
2023-05-10T15:51:17.395Z,43.05
2023-05-10T15:53:56.438Z,46.90
2023-05-10T15:56:23.935Z,42.08
2023-05-10T15:58:51.254Z,36.13
2023-05-10T16:01:18.489Z,45.58
2023-05-10T16:03:45.568Z,39.30
2023-05-10T16:06:12.833Z,43.97
2023-05-10T16:08:39.924Z,50.28
2023-05-10T16:11:08.361Z,43.58
2023-05-10T16:13:35.742Z,40.72
2023-05-10T16:16:03.023Z,49.70
2023-05-10T16:18:30.469Z,50.10
2023-05-10T16:20:59.973Z,48.05
2023-05-10T16:23:28.302Z,45.95
2023-05-10T16:25:55.848Z,48.65
2023-05-10T16:28:23.238Z,38.58
2023-05-10T16:30:50.357Z,41.97
2023-05-10T16:33:17.499Z,45.92
2023-05-10T16:35:44.746Z,45.42
2023-05-10T16:38:11.824Z,47.90
2023-05-10T16:40:39.027Z,47.47
2023-05-10T16:43:06.128Z,39.38
2023-05-10T16:45:33.286Z,47.75
2023-05-10T16:48:00.527Z,44.35
2023-05-10T16:50:27.894Z,43.75
2023-05-10T16:52:55.088Z,41.10
2023-05-10T16:55:24.744Z,44.38
2023-05-10T16:57:53.276Z,46.78
2023-05-10T17:00:21.135Z,47.42
2023-05-10T17:02:48.919Z,49.58
2023-05-10T17:05:16.469Z,43.63
2023-05-10T17:07:43.620Z,41.38
2023-05-10T17:10:11.168Z,48.13
2023-05-10T17:12:38.330Z,39.78
2023-05-10T17:15:06.565Z,43.72
2023-05-10T17:17:33.649Z,41.70
2023-05-10T17:20:01.019Z,47.05
2023-05-10T17:22:28.421Z,46.22
2023-05-10T17:24:55.518Z,43.33
2023-05-10T17:27:22.836Z,46.45
2023-05-10T17:29:49.932Z,48.65
2023-05-10T17:32:17.005Z,45.70
2023-05-10T17:34:44.982Z,45.88
2023-05-10T17:37:12.372Z,48.63
2023-05-10T17:39:40.107Z,56.10
2023-05-10T17:42:07.625Z,39.67
2023-05-10T17:44:34.759Z,50.45
2023-05-10T17:47:02.233Z,40.25
2023-05-10T17:49:29.352Z,47.03
2023-05-10T17:51:56.359Z,53.88
2023-05-10T17:54:23.585Z,58.40
2023-05-10T17:56:50.677Z,48.47
2023-05-10T17:59:17.715Z,50.97
2023-05-10T18:01:44.929Z,46.15
2023-05-10T18:04:11.995Z,50.75
2023-05-10T18:06:39.431Z,46.13
2023-05-10T18:09:07.699Z,46.70
2023-05-10T18:11:38.859Z,51.05
2023-05-10T18:14:05.902Z,40.42
2023-05-10T18:16:33.279Z,57.47
2023-05-10T18:19:00.442Z,53.45
2023-05-10T18:21:28.022Z,53.58
2023-05-10T18:23:55.482Z,45.47
2023-05-10T18:26:22.646Z,52.75
2023-05-10T18:28:49.786Z,48.38
2023-05-10T18:31:17.127Z,43.17
2023-05-10T18:33:45.292Z,50.53
2023-05-10T18:36:12.421Z,55.58
2023-05-10T18:38:40.470Z,56.85
2023-05-10T18:41:07.780Z,55.03
2023-05-10T18:43:34.854Z,49.22
2023-05-10T18:46:02.605Z,51.45
2023-05-10T18:48:29.678Z,58.10
2023-05-10T18:50:56.688Z,52.17
2023-05-10T18:53:23.883Z,60.53
2023-05-10T18:55:58.893Z,54.30
2023-05-10T18:58:28.584Z,49.58
2023-05-10T19:00:56.200Z,48.95
2023-05-10T19:03:23.329Z,48.17
2023-05-10T19:05:50.542Z,52.00
2023-05-10T19:08:17.984Z,52.33
2023-05-10T19:10:46.207Z,52.75
2023-05-10T19:13:15.191Z,51.40
2023-05-10T19:15:42.364Z,59.78
2023-05-10T19:18:09.777Z,60.55
2023-05-10T19:20:36.982Z,53.42
2023-05-10T19:23:10.079Z,59.35
2023-05-10T19:25:37.681Z,53.08
2023-05-10T19:28:04.916Z,55.45
2023-05-10T19:30:32.325Z,59.70
2023-05-10T19:32:59.737Z,49.95
2023-05-10T19:35:26.970Z,55.58
2023-05-10T19:37:54.385Z,57.60
2023-05-10T19:40:21.713Z,49.40
2023-05-10T19:42:48.952Z,51.53
2023-05-10T19:45:16.588Z,50.92
2023-05-10T19:47:44.802Z,59.10
2023-05-10T19:50:12.994Z,50.97
2023-05-10T19:52:40.322Z,55.05
2023-05-10T19:55:09.292Z,60.13
2023-05-10T19:57:36.842Z,57.58
2023-05-10T20:00:05.447Z,54.38
2023-05-10T20:02:32.689Z,52.75
2023-05-10T20:04:59.797Z,52.97
2023-05-10T20:07:26.937Z,59.20
2023-05-10T20:09:53.979Z,59.17
2023-05-10T20:12:21.664Z,60.17
2023-05-10T20:14:48.758Z,53.30
2023-05-10T20:17:15.850Z,53.30
2023-05-10T20:19:43.123Z,60.58
2023-05-10T20:22:10.754Z,45.33
2023-05-10T20:24:37.885Z,59.58
2023-05-10T20:27:05.013Z,59.38
2023-05-10T20:29:32.863Z,47.58
2023-05-10T20:32:00.009Z,47.72
2023-05-10T20:34:27.134Z,55.22
2023-05-10T20:36:54.274Z,53.47
2023-05-10T20:39:21.679Z,64.72
2023-05-10T20:41:49.759Z,53.30
2023-05-10T20:44:16.785Z,56.67
2023-05-10T20:46:43.925Z,62.75
2023-05-10T20:49:11.097Z,62.75
2023-05-10T20:51:38.159Z,60.05
2023-05-10T20:54:05.294Z,69.53
2023-05-10T20:56:32.504Z,52.78
2023-05-10T20:58:59.597Z,54.05
2023-05-10T21:01:26.801Z,59.85
2023-05-10T21:03:53.930Z,44.28
2023-05-10T21:06:21.005Z,54.25
2023-05-10T21:08:48.124Z,62.72
2023-05-10T21:11:15.233Z,49.25
2023-05-10T21:13:42.383Z,55.72
2023-05-10T21:16:09.514Z,56.83
2023-05-10T21:18:36.710Z,46.63
2023-05-10T21:21:04.068Z,48.75
2023-05-10T21:23:32.474Z,56.63
2023-05-10T21:26:03.455Z,47.83
2023-05-10T21:28:30.505Z,56.63
2023-05-10T21:30:57.756Z,43.50
2023-05-10T21:33:24.809Z,35.13
2023-05-10T21:35:52.739Z,38.80
2023-05-10T21:38:19.827Z,40.35
2023-05-10T21:40:47.065Z,34.00
2023-05-10T21:43:14.153Z,31.27
2023-05-10T21:45:41.437Z,27.48
2023-05-10T21:48:08.645Z,30.20
2023-05-10T21:50:35.745Z,31.52
2023-05-10T21:53:03.159Z,29.77
2023-05-10T21:55:30.315Z,29.20
2023-05-10T21:57:58.232Z,26.77
2023-05-10T22:00:25.268Z,25.77
2023-05-10T22:02:52.573Z,30.38
2023-05-10T22:05:21.416Z,24.48
2023-05-10T22:07:48.661Z,24.05
2023-05-10T22:10:16.335Z,25.48
2023-05-10T22:12:43.588Z,19.58
2023-05-10T22:15:11.307Z,21.58
2023-05-10T22:17:40.304Z,19.85
2023-05-10T22:20:09.070Z,23.90
2023-05-10T22:22:36.990Z,27.30
2023-05-10T22:25:06.379Z,20.52
2023-05-10T22:27:33.773Z,28.92
2023-05-10T22:30:00.964Z,31.77
2023-05-10T22:32:28.333Z,35.15
2023-05-10T22:34:55.578Z,33.30
2023-05-10T22:37:22.705Z,33.95
2023-05-10T22:39:55.152Z,37.78
2023-05-10T22:42:24.664Z,40.85
2023-05-10T22:44:51.853Z,33.33
2023-05-10T22:47:18.873Z,33.47
2023-05-10T22:49:45.931Z,33.17
2023-05-10T22:52:13.425Z,41.63
2023-05-10T22:54:41.351Z,38.05
2023-05-10T22:57:09.091Z,35.45
2023-05-10T22:59:36.170Z,34.20
2023-05-10T23:02:04.144Z,38.75
2023-05-10T23:04:31.235Z,39.67
2023-05-10T23:06:58.316Z,40.03
2023-05-10T23:09:25.416Z,36.67
2023-05-10T23:11:52.429Z,32.40
2023-05-10T23:14:19.622Z,29.23
2023-05-10T23:16:46.986Z,34.58
2023-05-10T23:19:14.140Z,30.70
2023-05-10T23:21:41.233Z,32.30
2023-05-10T23:24:08.839Z,29.02
2023-05-10T23:26:35.947Z,25.95
2023-05-10T23:29:03.012Z,34.60
2023-05-10T23:31:30.614Z,36.03
2023-05-10T23:33:57.685Z,35.35
2023-05-10T23:36:24.776Z,31.17
2023-05-10T23:38:51.890Z,37.97
2023-05-10T23:41:19.139Z,35.45
2023-05-10T23:43:46.110Z,36.22
2023-05-10T23:46:13.286Z,29.52
2023-05-10T23:48:40.470Z,30.40
2023-05-10T23:51:07.660Z,29.38
2023-05-10T23:53:34.681Z,31.10
2023-05-10T23:56:02.254Z,34.88
2023-05-10T23:58:29.782Z,35.72
